sensor_id;sensor_type;location;lat;lon;timestamp;temperature;humidity
64937;SHT30;51452;47.698;19.050;2023-01-29T00:02:00;2.26;71.65
64937;SHT30;51452;47.698;19.050;2023-01-29T00:04:27;2.16;71.07
64937;SHT30;51452;47.698;19.050;2023-01-29T00:06:53;2.11;70.80
64937;SHT30;51452;47.698;19.050;2023-01-29T00:09:18;2.04;71.05
64937;SHT30;51452;47.698;19.050;2023-01-29T00:11:44;2.03;71.07
64937;SHT30;51452;47.698;19.050;2023-01-29T00:14:09;2.00;71.42
64937;SHT30;51452;47.698;19.050;2023-01-29T00:16:35;1.96;71.38
64937;SHT30;51452;47.698;19.050;2023-01-29T00:19:01;1.95;71.75
64937;SHT30;51452;47.698;19.050;2023-01-29T00:21:27;1.95;72.06
64937;SHT30;51452;47.698;19.050;2023-01-29T00:23:55;1.87;71.57
64937;SHT30;51452;47.698;19.050;2023-01-29T00:26:21;1.87;71.77
64937;SHT30;51452;47.698;19.050;2023-01-29T00:28:47;1.80;72.97
64937;SHT30;51452;47.698;19.050;2023-01-29T00:31:20;1.76;73.03
64937;SHT30;51452;47.698;19.050;2023-01-29T00:33:47;1.62;73.30
64937;SHT30;51452;47.698;19.050;2023-01-29T00:36:13;1.67;73.31
64937;SHT30;51452;47.698;19.050;2023-01-29T00:38:40;1.63;73.43
64937;SHT30;51452;47.698;19.050;2023-01-29T00:41:11;1.56;73.88
64937;SHT30;51452;47.698;19.050;2023-01-29T00:43:56;1.59;73.87
64937;SHT30;51452;47.698;19.050;2023-01-29T00:46:40;1.63;73.61
64937;SHT30;51452;47.698;19.050;2023-01-29T00:49:06;1.65;73.63
64937;SHT30;51452;47.698;19.050;2023-01-29T00:51:32;1.70;73.06
64937;SHT30;51452;47.698;19.050;2023-01-29T00:53:58;1.77;72.97
64937;SHT30;51452;47.698;19.050;2023-01-29T00:56:24;1.82;73.00
64937;SHT30;51452;47.698;19.050;2023-01-29T00:58:50;1.80;73.21
64937;SHT30;51452;47.698;19.050;2023-01-29T01:01:15;1.66;73.59
64937;SHT30;51452;47.698;19.050;2023-01-29T01:03:41;1.77;73.60
64937;SHT30;51452;47.698;19.050;2023-01-29T01:06:08;1.90;73.25
64937;SHT30;51452;47.698;19.050;2023-01-29T01:08:34;1.96;73.29
64937;SHT30;51452;47.698;19.050;2023-01-29T01:11:18;2.00;72.99
64937;SHT30;51452;47.698;19.050;2023-01-29T01:13:44;1.93;72.87
64937;SHT30;51452;47.698;19.050;2023-01-29T01:16:12;1.92;73.03
64937;SHT30;51452;47.698;19.050;2023-01-29T01:18:38;1.89;73.12
64937;SHT30;51452;47.698;19.050;2023-01-29T01:21:04;1.89;73.30
64937;SHT30;51452;47.698;19.050;2023-01-29T01:23:29;1.95;73.13
64937;SHT30;51452;47.698;19.050;2023-01-29T01:25:55;1.97;73.13
64937;SHT30;51452;47.698;19.050;2023-01-29T01:28:21;2.00;73.19
64937;SHT30;51452;47.698;19.050;2023-01-29T01:30:46;1.99;73.19
64937;SHT30;51452;47.698;19.050;2023-01-29T01:33:11;2.04;72.87
64937;SHT30;51452;47.698;19.050;2023-01-29T01:35:38;1.96;72.87
64937;SHT30;51452;47.698;19.050;2023-01-29T01:38:04;1.93;72.77
64937;SHT30;51452;47.698;19.050;2023-01-29T01:40:29;1.95;73.02
64937;SHT30;51452;47.698;19.050;2023-01-29T01:42:56;1.92;72.87
64937;SHT30;51452;47.698;19.050;2023-01-29T01:45:33;1.89;72.71
64937;SHT30;51452;47.698;19.050;2023-01-29T01:48:20;1.95;72.79
64937;SHT30;51452;47.698;19.050;2023-01-29T01:50:53;2.10;72.38
64937;SHT30;51452;47.698;19.050;2023-01-29T01:53:36;2.07;72.18
64937;SHT30;51452;47.698;19.050;2023-01-29T01:56:16;2.10;72.14
64937;SHT30;51452;47.698;19.050;2023-01-29T01:58:46;2.17;72.02
64937;SHT30;51452;47.698;19.050;2023-01-29T02:01:15;2.21;72.05
64937;SHT30;51452;47.698;19.050;2023-01-29T02:03:53;2.18;71.82
64937;SHT30;51452;47.698;19.050;2023-01-29T02:06:39;2.24;71.71
64937;SHT30;51452;47.698;19.050;2023-01-29T02:09:34;2.20;71.58
64937;SHT30;51452;47.698;19.050;2023-01-29T02:12:02;2.16;71.90
64937;SHT30;51452;47.698;19.050;2023-01-29T02:14:29;2.17;71.97
64937;SHT30;51452;47.698;19.050;2023-01-29T02:16:56;2.20;71.60
64937;SHT30;51452;47.698;19.050;2023-01-29T02:22:23;2.16;71.93
64937;SHT30;51452;47.698;19.050;2023-01-29T02:39:35;2.04;72.04
64937;SHT30;51452;47.698;19.050;2023-01-29T02:42:15;2.09;71.88
64937;SHT30;51452;47.698;19.050;2023-01-29T02:44:53;2.04;72.25
64937;SHT30;51452;47.698;19.050;2023-01-29T02:52:39;2.10;72.29
64937;SHT30;51452;47.698;19.050;2023-01-29T02:55:12;2.07;72.08
64937;SHT30;51452;47.698;19.050;2023-01-29T02:57:42;2.13;72.02
64937;SHT30;51452;47.698;19.050;2023-01-29T03:02:45;2.33;71.29
64937;SHT30;51452;47.698;19.050;2023-01-29T03:05:16;2.40;71.09
64937;SHT30;51452;47.698;19.050;2023-01-29T03:07:51;2.44;70.88
64937;SHT30;51452;47.698;19.050;2023-01-29T03:10:22;2.48;71.14
64937;SHT30;51452;47.698;19.050;2023-01-29T03:13:04;2.58;71.44
64937;SHT30;51452;47.698;19.050;2023-01-29T03:15:37;2.59;71.60
64937;SHT30;51452;47.698;19.050;2023-01-29T03:18:10;2.57;72.15
64937;SHT30;51452;47.698;19.050;2023-01-29T03:20:41;2.54;71.72
64937;SHT30;51452;47.698;19.050;2023-01-29T03:23:33;2.54;71.35
64937;SHT30;51452;47.698;19.050;2023-01-29T03:26:20;2.64;71.76
64937;SHT30;51452;47.698;19.050;2023-01-29T03:29:06;2.69;72.05
64937;SHT30;51452;47.698;19.050;2023-01-29T03:31:53;2.72;72.20
64937;SHT30;51452;47.698;19.050;2023-01-29T03:34:29;2.54;72.90
64937;SHT30;51452;47.698;19.050;2023-01-29T03:37:10;2.26;73.84
64937;SHT30;51452;47.698;19.050;2023-01-29T03:39:38;2.33;73.95
64937;SHT30;51452;47.698;19.050;2023-01-29T03:42:25;2.34;73.63
64937;SHT30;51452;47.698;19.050;2023-01-29T03:45:20;2.40;73.27
64937;SHT30;51452;47.698;19.050;2023-01-29T03:47:57;2.40;73.26
64937;SHT30;51452;47.698;19.050;2023-01-29T03:50:40;2.40;72.93
64937;SHT30;51452;47.698;19.050;2023-01-29T03:53:27;2.47;73.16
64937;SHT30;51452;47.698;19.050;2023-01-29T03:56:03;2.49;73.14
64937;SHT30;51452;47.698;19.050;2023-01-29T03:58:34;2.49;73.43
64937;SHT30;51452;47.698;19.050;2023-01-29T04:03:32;2.41;73.85
64937;SHT30;51452;47.698;19.050;2023-01-29T04:06:25;2.33;73.93
64937;SHT30;51452;47.698;19.050;2023-01-29T04:08:58;2.33;74.06
64937;SHT30;51452;47.698;19.050;2023-01-29T04:11:26;2.33;74.44
64937;SHT30;51452;47.698;19.050;2023-01-29T04:13:55;2.24;74.95
64937;SHT30;51452;47.698;19.050;2023-01-29T04:16:33;2.18;75.03
64937;SHT30;51452;47.698;19.050;2023-01-29T04:19:01;2.23;75.26
64937;SHT30;51452;47.698;19.050;2023-01-29T04:21:27;2.13;75.25
64937;SHT30;51452;47.698;19.050;2023-01-29T04:23:55;2.02;75.49
64937;SHT30;51452;47.698;19.050;2023-01-29T04:31:51;1.87;75.02
64937;SHT30;51452;47.698;19.050;2023-01-29T04:34:22;1.99;74.92
64937;SHT30;51452;47.698;19.050;2023-01-29T04:37:03;1.95;74.47
64937;SHT30;51452;47.698;19.050;2023-01-29T04:42:11;1.83;74.13
64937;SHT30;51452;47.698;19.050;2023-01-29T04:44:58;1.90;74.28
64937;SHT30;51452;47.698;19.050;2023-01-29T04:50:37;1.93;73.89
64937;SHT30;51452;47.698;19.050;2023-01-29T04:53:29;1.97;73.03
64937;SHT30;51452;47.698;19.050;2023-01-29T04:56:02;1.97;72.76
64937;SHT30;51452;47.698;19.050;2023-01-29T04:58:40;1.97;71.69
64937;SHT30;51452;47.698;19.050;2023-01-29T05:01:10;2.09;71.42
64937;SHT30;51452;47.698;19.050;2023-01-29T05:03:39;2.13;70.73
64937;SHT30;51452;47.698;19.050;2023-01-29T05:06:08;2.23;70.57
64937;SHT30;51452;47.698;19.050;2023-01-29T05:08:36;2.23;69.18
64937;SHT30;51452;47.698;19.050;2023-01-29T05:11:03;2.34;69.32
64937;SHT30;51452;47.698;19.050;2023-01-29T05:13:30;2.38;68.52
64937;SHT30;51452;47.698;19.050;2023-01-29T05:16:07;2.33;67.80
64937;SHT30;51452;47.698;19.050;2023-01-29T05:18:34;2.42;68.79
64937;SHT30;51452;47.698;19.050;2023-01-29T05:21:03;2.45;69.12
64937;SHT30;51452;47.698;19.050;2023-01-29T05:23:29;2.45;68.84
64937;SHT30;51452;47.698;19.050;2023-01-29T05:25:55;2.45;67.50
64937;SHT30;51452;47.698;19.050;2023-01-29T05:28:21;2.47;67.71
64937;SHT30;51452;47.698;19.050;2023-01-29T05:30:51;2.45;67.10
64937;SHT30;51452;47.698;19.050;2023-01-29T05:33:25;2.34;66.85
64937;SHT30;51452;47.698;19.050;2023-01-29T05:35:52;2.33;67.33
64937;SHT30;51452;47.698;19.050;2023-01-29T05:38:18;2.23;67.61
64937;SHT30;51452;47.698;19.050;2023-01-29T05:40:44;2.27;67.79
64937;SHT30;51452;47.698;19.050;2023-01-29T05:43:15;2.21;67.99
64937;SHT30;51452;47.698;19.050;2023-01-29T05:45:41;2.20;67.94
64937;SHT30;51452;47.698;19.050;2023-01-29T05:48:06;2.10;67.95
64937;SHT30;51452;47.698;19.050;2023-01-29T05:50:31;1.95;68.00
64937;SHT30;51452;47.698;19.050;2023-01-29T05:52:58;1.89;68.59
64937;SHT30;51452;47.698;19.050;2023-01-29T05:55:24;1.87;68.85
64937;SHT30;51452;47.698;19.050;2023-01-29T05:57:49;1.95;68.23
64937;SHT30;51452;47.698;19.050;2023-01-29T06:00:15;1.95;68.54
64937;SHT30;51452;47.698;19.050;2023-01-29T06:02:40;1.90;68.47
64937;SHT30;51452;47.698;19.050;2023-01-29T06:05:06;1.83;68.31
64937;SHT30;51452;47.698;19.050;2023-01-29T06:07:32;1.86;68.55
64937;SHT30;51452;47.698;19.050;2023-01-29T06:09:57;1.73;67.97
64937;SHT30;51452;47.698;19.050;2023-01-29T06:12:23;1.70;68.22
64937;SHT30;51452;47.698;19.050;2023-01-29T06:14:48;1.75;68.20
64937;SHT30;51452;47.698;19.050;2023-01-29T06:17:13;1.77;68.18
64937;SHT30;51452;47.698;19.050;2023-01-29T06:19:39;1.70;68.06
64937;SHT30;51452;47.698;19.050;2023-01-29T06:22:04;1.59;69.04
64937;SHT30;51452;47.698;19.050;2023-01-29T06:24:30;1.59;69.32
64937;SHT30;51452;47.698;19.050;2023-01-29T06:26:56;1.62;69.65
64937;SHT30;51452;47.698;19.050;2023-01-29T06:29:22;1.65;69.79
64937;SHT30;51452;47.698;19.050;2023-01-29T06:31:47;1.60;70.06
64937;SHT30;51452;47.698;19.050;2023-01-29T06:34:13;1.63;70.21
64937;SHT30;51452;47.698;19.050;2023-01-29T06:36:38;1.54;70.63
64937;SHT30;51452;47.698;19.050;2023-01-29T06:39:04;1.67;70.79
64937;SHT30;51452;47.698;19.050;2023-01-29T06:41:29;1.63;70.69
64937;SHT30;51452;47.698;19.050;2023-01-29T06:43:54;1.62;71.11
64937;SHT30;51452;47.698;19.050;2023-01-29T06:46:20;1.65;71.25
64937;SHT30;51452;47.698;19.050;2023-01-29T06:48:45;1.70;71.25
64937;SHT30;51452;47.698;19.050;2023-01-29T06:51:11;1.75;71.26
64937;SHT30;51452;47.698;19.050;2023-01-29T06:53:37;1.62;71.57
64937;SHT30;51452;47.698;19.050;2023-01-29T06:56:03;1.60;71.72
64937;SHT30;51452;47.698;19.050;2023-01-29T06:58:29;1.56;71.96
64937;SHT30;51452;47.698;19.050;2023-01-29T07:01:10;1.60;72.14
64937;SHT30;51452;47.698;19.050;2023-01-29T07:03:36;1.58;72.09
64937;SHT30;51452;47.698;19.050;2023-01-29T07:06:02;1.55;72.35
64937;SHT30;51452;47.698;19.050;2023-01-29T07:08:28;1.60;71.95
64937;SHT30;51452;47.698;19.050;2023-01-29T07:11:00;1.59;72.17
64937;SHT30;51452;47.698;19.050;2023-01-29T07:13:25;1.66;72.48
64937;SHT30;51452;47.698;19.050;2023-01-29T07:15:51;1.55;72.11
64937;SHT30;51452;47.698;19.050;2023-01-29T07:18:16;1.60;72.27
64937;SHT30;51452;47.698;19.050;2023-01-29T07:20:42;1.63;72.03
64937;SHT30;51452;47.698;19.050;2023-01-29T07:23:10;1.60;72.15
64937;SHT30;51452;47.698;19.050;2023-01-29T07:25:36;1.70;71.87
64937;SHT30;51452;47.698;19.050;2023-01-29T07:28:02;1.72;72.22
64937;SHT30;51452;47.698;19.050;2023-01-29T07:30:28;1.79;71.96
64937;SHT30;51452;47.698;19.050;2023-01-29T07:32:54;1.77;71.66
64937;SHT30;51452;47.698;19.050;2023-01-29T07:35:19;1.75;71.36
64937;SHT30;51452;47.698;19.050;2023-01-29T07:37:48;1.82;71.29
64937;SHT30;51452;47.698;19.050;2023-01-29T07:40:13;1.60;71.69
64937;SHT30;51452;47.698;19.050;2023-01-29T07:42:39;1.60;71.49
64937;SHT30;51452;47.698;19.050;2023-01-29T07:45:07;1.65;71.94
64937;SHT30;51452;47.698;19.050;2023-01-29T07:47:32;1.62;71.56
64937;SHT30;51452;47.698;19.050;2023-01-29T07:49:58;1.69;71.25
64937;SHT30;51452;47.698;19.050;2023-01-29T07:52:23;1.72;71.26
64937;SHT30;51452;47.698;19.050;2023-01-29T07:54:49;1.75;71.36
64937;SHT30;51452;47.698;19.050;2023-01-29T07:57:14;1.76;70.79
64937;SHT30;51452;47.698;19.050;2023-01-29T07:59:39;1.87;70.90
64937;SHT30;51452;47.698;19.050;2023-01-29T08:02:05;1.87;70.44
64937;SHT30;51452;47.698;19.050;2023-01-29T08:04:30;1.85;70.82
64937;SHT30;51452;47.698;19.050;2023-01-29T08:06:56;1.72;70.53
64937;SHT30;51452;47.698;19.050;2023-01-29T08:09:21;1.70;70.61
64937;SHT30;51452;47.698;19.050;2023-01-29T08:11:46;1.63;70.44
64937;SHT30;51452;47.698;19.050;2023-01-29T08:14:12;1.66;70.32
64937;SHT30;51452;47.698;19.050;2023-01-29T08:16:37;1.62;70.51
64937;SHT30;51452;47.698;19.050;2023-01-29T08:19:02;1.62;70.51
64937;SHT30;51452;47.698;19.050;2023-01-29T08:21:28;1.59;70.58
64937;SHT30;51452;47.698;19.050;2023-01-29T08:23:53;1.51;70.44
64937;SHT30;51452;47.698;19.050;2023-01-29T08:26:19;1.62;70.63
64937;SHT30;51452;47.698;19.050;2023-01-29T08:28:44;1.54;70.38
64937;SHT30;51452;47.698;19.050;2023-01-29T08:31:14;1.59;70.85
64937;SHT30;51452;47.698;19.050;2023-01-29T08:33:40;1.62;70.56
64937;SHT30;51452;47.698;19.050;2023-01-29T08:36:06;1.44;70.55
64937;SHT30;51452;47.698;19.050;2023-01-29T08:38:32;1.32;71.05
64937;SHT30;51452;47.698;19.050;2023-01-29T08:40:57;1.30;71.07
64937;SHT30;51452;47.698;19.050;2023-01-29T08:43:23;1.31;71.40
64937;SHT30;51452;47.698;19.050;2023-01-29T08:45:48;1.28;71.70
64937;SHT30;51452;47.698;19.050;2023-01-29T08:48:13;1.23;71.60
64937;SHT30;51452;47.698;19.050;2023-01-29T08:50:39;1.14;71.81
64937;SHT30;51452;47.698;19.050;2023-01-29T08:53:06;1.20;71.62
64937;SHT30;51452;47.698;19.050;2023-01-29T08:55:39;1.11;72.03
64937;SHT30;51452;47.698;19.050;2023-01-29T08:58:06;1.08;72.03
64937;SHT30;51452;47.698;19.050;2023-01-29T09:00:33;1.09;71.72
64937;SHT30;51452;47.698;19.050;2023-01-29T09:02:59;1.14;71.58
64937;SHT30;51452;47.698;19.050;2023-01-29T09:05:26;1.08;71.50
64937;SHT30;51452;47.698;19.050;2023-01-29T09:07:52;1.15;71.79
64937;SHT30;51452;47.698;19.050;2023-01-29T09:10:18;1.24;71.43
64937;SHT30;51452;47.698;19.050;2023-01-29T09:12:43;1.25;70.99
64937;SHT30;51452;47.698;19.050;2023-01-29T09:15:09;1.32;71.11
64937;SHT30;51452;47.698;19.050;2023-01-29T09:17:35;1.25;70.82
64937;SHT30;51452;47.698;19.050;2023-01-29T09:20:00;1.32;70.77
64937;SHT30;51452;47.698;19.050;2023-01-29T09:22:25;1.42;70.57
64937;SHT30;51452;47.698;19.050;2023-01-29T09:24:51;1.44;69.95
64937;SHT30;51452;47.698;19.050;2023-01-29T09:27:16;1.44;70.11
64937;SHT30;51452;47.698;19.050;2023-01-29T09:29:42;1.48;69.83
64937;SHT30;51452;47.698;19.050;2023-01-29T09:32:07;1.49;69.79
64937;SHT30;51452;47.698;19.050;2023-01-29T09:34:33;1.62;69.68
64937;SHT30;51452;47.698;19.050;2023-01-29T09:36:58;1.59;69.00
64937;SHT30;51452;47.698;19.050;2023-01-29T09:39:24;1.66;69.22
64937;SHT30;51452;47.698;19.050;2023-01-29T09:44:32;1.63;68.47
64937;SHT30;51452;47.698;19.050;2023-01-29T09:47:10;1.70;68.03
64937;SHT30;51452;47.698;19.050;2023-01-29T09:49:46;1.72;67.82
64937;SHT30;51452;47.698;19.050;2023-01-29T09:52:26;1.60;67.72
64937;SHT30;51452;47.698;19.050;2023-01-29T10:00:03;1.52;67.36
64937;SHT30;51452;47.698;19.050;2023-01-29T10:06:17;1.44;67.05
64937;SHT30;51452;47.698;19.050;2023-01-29T10:25:04;1.48;65.93
64937;SHT30;51452;47.698;19.050;2023-01-29T10:27:36;1.39;65.97
64937;SHT30;51452;47.698;19.050;2023-01-29T10:30:06;1.38;64.98
64937;SHT30;51452;47.698;19.050;2023-01-29T10:32:35;1.45;65.87
64937;SHT30;51452;47.698;19.050;2023-01-29T10:35:04;1.51;65.20
64937;SHT30;51452;47.698;19.050;2023-01-29T10:37:40;1.56;65.31
64937;SHT30;51452;47.698;19.050;2023-01-29T10:40:40;1.45;63.92
64937;SHT30;51452;47.698;19.050;2023-01-29T10:48:34;1.09;64.80
64937;SHT30;51452;47.698;19.050;2023-01-29T10:51:37;1.20;64.87
64937;SHT30;51452;47.698;19.050;2023-01-29T10:54:41;1.27;64.44
64937;SHT30;51452;47.698;19.050;2023-01-29T10:57:23;1.36;63.85
64937;SHT30;51452;47.698;19.050;2023-01-29T11:00:07;1.45;63.74
64937;SHT30;51452;47.698;19.050;2023-01-29T11:02:42;1.41;63.40
64937;SHT30;51452;47.698;19.050;2023-01-29T11:05:29;1.39;63.76
64937;SHT30;51452;47.698;19.050;2023-01-29T11:08:04;1.48;63.83
64937;SHT30;51452;47.698;19.050;2023-01-29T11:10:32;1.48;62.77
64937;SHT30;51452;47.698;19.050;2023-01-29T11:13:02;1.59;63.28
64937;SHT30;51452;47.698;19.050;2023-01-29T11:15:31;1.69;62.80
64937;SHT30;51452;47.698;19.050;2023-01-29T11:18:03;1.75;63.19
64937;SHT30;51452;47.698;19.050;2023-01-29T11:20:29;1.62;63.33
64937;SHT30;51452;47.698;19.050;2023-01-29T11:22:55;1.44;63.11
64937;SHT30;51452;47.698;19.050;2023-01-29T11:25:22;1.52;63.82
64937;SHT30;51452;47.698;19.050;2023-01-29T11:27:58;1.49;63.20
64937;SHT30;51452;47.698;19.050;2023-01-29T11:35:36;1.52;62.34
64937;SHT30;51452;47.698;19.050;2023-01-29T11:38:26;1.49;62.63
64937;SHT30;51452;47.698;19.050;2023-01-29T11:40:52;1.49;62.10
64937;SHT30;51452;47.698;19.050;2023-01-29T11:45:45;1.63;62.34
64937;SHT30;51452;47.698;19.050;2023-01-29T11:48:17;1.54;61.16
64937;SHT30;51452;47.698;19.050;2023-01-29T11:50:50;1.51;61.86
64937;SHT30;51452;47.698;19.050;2023-01-29T11:56:12;1.28;61.28
64937;SHT30;51452;47.698;19.050;2023-01-29T11:58:41;1.34;61.87
64937;SHT30;51452;47.698;19.050;2023-01-29T12:01:08;1.35;62.22
64937;SHT30;51452;47.698;19.050;2023-01-29T12:03:43;1.41;62.04
64937;SHT30;51452;47.698;19.050;2023-01-29T12:06:25;1.52;61.24
64937;SHT30;51452;47.698;19.050;2023-01-29T12:08:57;1.56;60.98
64937;SHT30;51452;47.698;19.050;2023-01-29T12:11:27;1.51;60.84
64937;SHT30;51452;47.698;19.050;2023-01-29T12:14:34;1.45;60.60
64937;SHT30;51452;47.698;19.050;2023-01-29T12:17:16;1.46;60.27
64937;SHT30;51452;47.698;19.050;2023-01-29T12:19:52;1.55;59.73
64937;SHT30;51452;47.698;19.050;2023-01-29T12:25:59;1.73;59.90
64937;SHT30;51452;47.698;19.050;2023-01-29T12:28:54;1.75;58.99
64937;SHT30;51452;47.698;19.050;2023-01-29T12:37:20;1.59;59.93
64937;SHT30;51452;47.698;19.050;2023-01-29T12:39:50;1.60;59.80
64937;SHT30;51452;47.698;19.050;2023-01-29T12:42:23;1.56;59.23
64937;SHT30;51452;47.698;19.050;2023-01-29T12:45:03;1.44;59.52
64937;SHT30;51452;47.698;19.050;2023-01-29T12:47:42;1.46;59.43
64937;SHT30;51452;47.698;19.050;2023-01-29T12:52:52;1.54;60.06
64937;SHT30;51452;47.698;19.050;2023-01-29T12:58:11;1.60;60.44
64937;SHT30;51452;47.698;19.050;2023-01-29T13:00:43;1.66;60.51
64937;SHT30;51452;47.698;19.050;2023-01-29T13:03:33;1.62;59.62
64937;SHT30;51452;47.698;19.050;2023-01-29T13:06:16;1.62;58.78
64937;SHT30;51452;47.698;19.050;2023-01-29T13:08:50;1.58;59.72
64937;SHT30;51452;47.698;19.050;2023-01-29T13:11:34;1.52;59.10
64937;SHT30;51452;47.698;19.050;2023-01-29T13:14:07;1.56;59.23
64937;SHT30;51452;47.698;19.050;2023-01-29T13:16:41;1.62;60.19
64937;SHT30;51452;47.698;19.050;2023-01-29T13:19:37;1.46;59.26
64937;SHT30;51452;47.698;19.050;2023-01-29T13:22:15;1.48;59.43
64937;SHT30;51452;47.698;19.050;2023-01-29T13:24:42;1.44;59.31
64937;SHT30;51452;47.698;19.050;2023-01-29T13:27:35;1.38;59.94
64937;SHT30;51452;47.698;19.050;2023-01-29T13:30:01;1.35;59.12
64937;SHT30;51452;47.698;19.050;2023-01-29T13:32:31;1.30;59.97
64937;SHT30;51452;47.698;19.050;2023-01-29T13:35:01;1.15;59.47
64937;SHT30;51452;47.698;19.050;2023-01-29T13:37:32;1.04;60.06
64937;SHT30;51452;47.698;19.050;2023-01-29T13:39:59;0.93;60.48
64937;SHT30;51452;47.698;19.050;2023-01-29T13:42:42;0.93;60.63
64937;SHT30;51452;47.698;19.050;2023-01-29T13:45:21;0.94;60.29
64937;SHT30;51452;47.698;19.050;2023-01-29T13:47:47;0.91;60.02
64937;SHT30;51452;47.698;19.050;2023-01-29T13:50:18;0.87;60.10
64937;SHT30;51452;47.698;19.050;2023-01-29T13:55:25;0.62;60.82
64937;SHT30;51452;47.698;19.050;2023-01-29T13:57:56;0.64;61.12
64937;SHT30;51452;47.698;19.050;2023-01-29T14:08:05;0.57;61.96
64937;SHT30;51452;47.698;19.050;2023-01-29T14:10:32;0.59;61.92
64937;SHT30;51452;47.698;19.050;2023-01-29T14:15:36;0.53;62.14
64937;SHT30;51452;47.698;19.050;2023-01-29T14:18:18;0.41;62.61
64937;SHT30;51452;47.698;19.050;2023-01-29T14:20:58;0.49;62.67
64937;SHT30;51452;47.698;19.050;2023-01-29T14:23:49;0.42;62.59
64937;SHT30;51452;47.698;19.050;2023-01-29T14:31:58;0.33;63.04
64937;SHT30;51452;47.698;19.050;2023-01-29T14:35:01;0.30;63.01
64937;SHT30;51452;47.698;19.050;2023-01-29T14:37:35;0.21;63.54
64937;SHT30;51452;47.698;19.050;2023-01-29T14:45:25;0.25;63.21
64937;SHT30;51452;47.698;19.050;2023-01-29T14:48:03;0.18;62.56
64937;SHT30;51452;47.698;19.050;2023-01-29T14:53:22;0.23;62.98
64937;SHT30;51452;47.698;19.050;2023-01-29T15:01:31;0.41;62.71
64937;SHT30;51452;47.698;19.050;2023-01-29T15:04:14;0.39;63.05
64937;SHT30;51452;47.698;19.050;2023-01-29T15:06:50;0.48;63.53
64937;SHT30;51452;47.698;19.050;2023-01-29T15:12:02;0.28;62.84
64937;SHT30;51452;47.698;19.050;2023-01-29T15:14:34;0.19;63.21
64937;SHT30;51452;47.698;19.050;2023-01-29T15:17:28;0.14;63.09
64937;SHT30;51452;47.698;19.050;2023-01-29T15:19:55;0.18;63.10
64937;SHT30;51452;47.698;19.050;2023-01-29T15:22:23;0.21;63.00
64937;SHT30;51452;47.698;19.050;2023-01-29T15:25:13;0.14;62.91
64937;SHT30;51452;47.698;19.050;2023-01-29T15:27:43;0.12;63.10
64937;SHT30;51452;47.698;19.050;2023-01-29T15:30:17;0.02;63.34
64937;SHT30;51452;47.698;19.050;2023-01-29T15:32:44;0.05;63.47
64937;SHT30;51452;47.698;19.050;2023-01-29T15:35:29;0.05;63.47
64937;SHT30;51452;47.698;19.050;2023-01-29T15:40:37;-0.06;63.75
64937;SHT30;51452;47.698;19.050;2023-01-29T15:43:18;-0.08;64.08
64937;SHT30;51452;47.698;19.050;2023-01-29T15:45:45;-0.10;63.81
64937;SHT30;51452;47.698;19.050;2023-01-29T15:48:18;-0.15;64.58
64937;SHT30;51452;47.698;19.050;2023-01-29T15:50:45;-0.15;64.23
64937;SHT30;51452;47.698;19.050;2023-01-29T15:53:18;-0.19;64.09
64937;SHT30;51452;47.698;19.050;2023-01-29T15:55:45;-0.16;64.36
64937;SHT30;51452;47.698;19.050;2023-01-29T15:58:17;-0.19;64.35
64937;SHT30;51452;47.698;19.050;2023-01-29T16:00:49;-0.20;64.48
64937;SHT30;51452;47.698;19.050;2023-01-29T16:03:21;-0.26;64.07
64937;SHT30;51452;47.698;19.050;2023-01-29T16:05:47;-0.25;64.21
64937;SHT30;51452;47.698;19.050;2023-01-29T16:08:13;-0.30;64.82
64937;SHT30;51452;47.698;19.050;2023-01-29T16:10:40;-0.36;64.76
64937;SHT30;51452;47.698;19.050;2023-01-29T16:15:54;-0.34;64.63
64937;SHT30;51452;47.698;19.050;2023-01-29T16:18:24;-0.33;64.86
64937;SHT30;51452;47.698;19.050;2023-01-29T16:20:54;-0.26;64.82
64937;SHT30;51452;47.698;19.050;2023-01-29T16:23:34;-0.29;64.38
64937;SHT30;51452;47.698;19.050;2023-01-29T16:26:07;-0.30;64.67
64937;SHT30;51452;47.698;19.050;2023-01-29T16:28:41;-0.29;64.58
64937;SHT30;51452;47.698;19.050;2023-01-29T16:31:09;-0.34;65.11
64937;SHT30;51452;47.698;19.050;2023-01-29T16:33:37;-0.33;64.67
64937;SHT30;51452;47.698;19.050;2023-01-29T16:36:28;-0.37;65.04
64937;SHT30;51452;47.698;19.050;2023-01-29T16:39:01;-0.22;65.26
64937;SHT30;51452;47.698;19.050;2023-01-29T16:41:32;-0.19;65.17
64937;SHT30;51452;47.698;19.050;2023-01-29T16:46:43;-0.16;65.23
64937;SHT30;51452;47.698;19.050;2023-01-29T16:49:41;-0.15;64.69
64937;SHT30;51452;47.698;19.050;2023-01-29T16:54:49;-0.02;64.41
64937;SHT30;51452;47.698;19.050;2023-01-29T16:57:26;-0.08;64.43
64937;SHT30;51452;47.698;19.050;2023-01-29T16:59:57;-0.10;64.98
64937;SHT30;51452;47.698;19.050;2023-01-29T17:02:29;-0.09;65.18
64937;SHT30;51452;47.698;19.050;2023-01-29T17:05:02;-0.12;65.03
64937;SHT30;51452;47.698;19.050;2023-01-29T17:07:31;-0.26;65.35
64937;SHT30;51452;47.698;19.050;2023-01-29T17:10:00;-0.27;65.28
64937;SHT30;51452;47.698;19.050;2023-01-29T17:12:28;-0.32;66.05
64937;SHT30;51452;47.698;19.050;2023-01-29T17:14:57;-0.34;65.74
64937;SHT30;51452;47.698;19.050;2023-01-29T17:17:31;-0.40;65.75
64937;SHT30;51452;47.698;19.050;2023-01-29T17:20:19;-0.49;65.85
64937;SHT30;51452;47.698;19.050;2023-01-29T17:22:44;-0.53;66.19
64937;SHT30;51452;47.698;19.050;2023-01-29T17:25:15;-0.64;66.03
64937;SHT30;51452;47.698;19.050;2023-01-29T17:27:43;-0.68;66.39
64937;SHT30;51452;47.698;19.050;2023-01-29T17:30:18;-0.67;66.43
64937;SHT30;51452;47.698;19.050;2023-01-29T17:32:45;-0.64;66.74
64937;SHT30;51452;47.698;19.050;2023-01-29T17:35:12;-0.68;66.50
64937;SHT30;51452;47.698;19.050;2023-01-29T17:37:38;-0.76;67.12
64937;SHT30;51452;47.698;19.050;2023-01-29T17:42:50;-0.73;66.97
64937;SHT30;51452;47.698;19.050;2023-01-29T17:45:16;-0.73;66.80
64937;SHT30;51452;47.698;19.050;2023-01-29T17:47:42;-0.64;66.75
64937;SHT30;51452;47.698;19.050;2023-01-29T17:50:34;-0.64;66.75
64937;SHT30;51452;47.698;19.050;2023-01-29T17:53:00;-0.61;66.54
64937;SHT30;51452;47.698;19.050;2023-01-29T17:55:27;-0.58;66.33
64937;SHT30;51452;47.698;19.050;2023-01-29T17:57:52;-0.61;66.84
64937;SHT30;51452;47.698;19.050;2023-01-29T18:00:22;-0.63;66.66
64937;SHT30;51452;47.698;19.050;2023-01-29T18:02:49;-0.68;66.67
64937;SHT30;51452;47.698;19.050;2023-01-29T18:05:16;-0.87;66.47
64937;SHT30;51452;47.698;19.050;2023-01-29T18:07:44;-0.89;66.67
64937;SHT30;51452;47.698;19.050;2023-01-29T18:10:20;-0.98;66.82
64937;SHT30;51452;47.698;19.050;2023-01-29T18:12:46;-0.95;66.99
64937;SHT30;51452;47.698;19.050;2023-01-29T18:15:13;-1.05;67.11
64937;SHT30;51452;47.698;19.050;2023-01-29T18:17:39;-1.11;67.24
64937;SHT30;51452;47.698;19.050;2023-01-29T18:20:31;-1.13;67.19